Terminal Aerodrome Forecast
Issued by NWS

Current Version | Previous Version | Graphics & Text | Print | Product List | Glossary On
Versions: 1 2 3 4 5 6 7 8 9 10 11 12 13 14 15 16 17 18
000
FTUS41 KILN 301741
TAFLCK
TAF
KLCK 301741Z 3018/3118 28007G16KT P6SM FEW050 FEW200
     FM302300 VRB03KT P6SM SKC
     FM311400 27007KT P6SM FEW050=

USA.gov is the U.S. government's official web portal to all federal, state and local government web resources and services.